sensor_id;sensor_type;location;lat;lon;timestamp;P1;durP1;ratioP1;P2;durP2;ratioP2
53497;SDS011;39382;47.168;16.008;2023-11-21T00:02:19;7.55;;;4.28;;
53497;SDS011;39382;47.168;16.008;2023-11-21T00:04:45;6.75;;;4.50;;
53497;SDS011;39382;47.168;16.008;2023-11-21T00:07:12;7.97;;;4.47;;
53497;SDS011;39382;47.168;16.008;2023-11-21T00:09:37;7.78;;;3.92;;
53497;SDS011;39382;47.168;16.008;2023-11-21T00:12:03;8.10;;;4.00;;
53497;SDS011;39382;47.168;16.008;2023-11-21T00:14:29;10.93;;;4.07;;
53497;SDS011;39382;47.168;16.008;2023-11-21T00:16:55;8.43;;;4.47;;
53497;SDS011;39382;47.168;16.008;2023-11-21T00:19:20;8.45;;;4.32;;
53497;SDS011;39382;47.168;16.008;2023-11-21T00:21:46;9.88;;;5.35;;
53497;SDS011;39382;47.168;16.008;2023-11-21T00:24:11;9.70;;;5.78;;
53497;SDS011;39382;47.168;16.008;2023-11-21T00:26:39;6.60;;;4.32;;
53497;SDS011;39382;47.168;16.008;2023-11-21T00:29:05;7.28;;;4.07;;
53497;SDS011;39382;47.168;16.008;2023-11-21T00:31:36;5.78;;;3.85;;
53497;SDS011;39382;47.168;16.008;2023-11-21T00:34:05;8.68;;;4.22;;
53497;SDS011;39382;47.168;16.008;2023-11-21T00:36:31;7.38;;;3.97;;
53497;SDS011;39382;47.168;16.008;2023-11-21T00:38:57;5.38;;;3.83;;
53497;SDS011;39382;47.168;16.008;2023-11-21T00:41:24;8.60;;;4.60;;
53497;SDS011;39382;47.168;16.008;2023-11-21T00:43:52;7.43;;;4.05;;
53497;SDS011;39382;47.168;16.008;2023-11-21T00:46:18;6.72;;;4.53;;
53497;SDS011;39382;47.168;16.008;2023-11-21T00:48:43;6.72;;;3.90;;
53497;SDS011;39382;47.168;16.008;2023-11-21T00:51:09;5.07;;;3.22;;
53497;SDS011;39382;47.168;16.008;2023-11-21T00:53:35;9.40;;;4.25;;
53497;SDS011;39382;47.168;16.008;2023-11-21T00:56:00;8.50;;;5.00;;
53497;SDS011;39382;47.168;16.008;2023-11-21T00:58:27;7.28;;;4.75;;
53497;SDS011;39382;47.168;16.008;2023-11-21T01:00:53;10.00;;;4.65;;
53497;SDS011;39382;47.168;16.008;2023-11-21T01:03:19;11.23;;;4.50;;
53497;SDS011;39382;47.168;16.008;2023-11-21T01:05:45;6.82;;;3.85;;
53497;SDS011;39382;47.168;16.008;2023-11-21T01:08:11;5.75;;;3.55;;
53497;SDS011;39382;47.168;16.008;2023-11-21T01:10:37;4.78;;;3.63;;
53497;SDS011;39382;47.168;16.008;2023-11-21T01:13:02;7.43;;;4.30;;
53497;SDS011;39382;47.168;16.008;2023-11-21T01:15:32;6.57;;;3.75;;
53497;SDS011;39382;47.168;16.008;2023-11-21T01:17:58;7.72;;;4.40;;
53497;SDS011;39382;47.168;16.008;2023-11-21T01:20:24;11.57;;;4.18;;
53497;SDS011;39382;47.168;16.008;2023-11-21T01:22:50;4.68;;;3.70;;
53497;SDS011;39382;47.168;16.008;2023-11-21T01:25:15;7.40;;;3.75;;
53497;SDS011;39382;47.168;16.008;2023-11-21T01:27:41;7.25;;;4.07;;
53497;SDS011;39382;47.168;16.008;2023-11-21T01:30:08;7.43;;;4.20;;
53497;SDS011;39382;47.168;16.008;2023-11-21T01:32:35;7.32;;;4.57;;
53497;SDS011;39382;47.168;16.008;2023-11-21T01:35:01;5.60;;;4.03;;
53497;SDS011;39382;47.168;16.008;2023-11-21T01:37:27;6.78;;;3.97;;
53497;SDS011;39382;47.168;16.008;2023-11-21T01:39:56;6.63;;;3.80;;
53497;SDS011;39382;47.168;16.008;2023-11-21T01:42:21;7.50;;;3.60;;
53497;SDS011;39382;47.168;16.008;2023-11-21T01:44:47;8.65;;;4.47;;
53497;SDS011;39382;47.168;16.008;2023-11-21T01:47:13;5.03;;;3.45;;
53497;SDS011;39382;47.168;16.008;2023-11-21T01:49:40;11.95;;;3.83;;
53497;SDS011;39382;47.168;16.008;2023-11-21T01:52:09;10.55;;;4.80;;
53497;SDS011;39382;47.168;16.008;2023-11-21T01:54:36;8.65;;;4.45;;
53497;SDS011;39382;47.168;16.008;2023-11-21T01:57:02;11.82;;;4.82;;
53497;SDS011;39382;47.168;16.008;2023-11-21T01:59:37;5.32;;;3.42;;
53497;SDS011;39382;47.168;16.008;2023-11-21T02:02:06;6.28;;;4.00;;
53497;SDS011;39382;47.168;16.008;2023-11-21T02:04:33;4.47;;;2.97;;
53497;SDS011;39382;47.168;16.008;2023-11-21T02:06:59;7.22;;;3.50;;
53497;SDS011;39382;47.168;16.008;2023-11-21T02:09:26;5.60;;;4.03;;
53497;SDS011;39382;47.168;16.008;2023-11-21T02:11:52;5.60;;;3.28;;
53497;SDS011;39382;47.168;16.008;2023-11-21T02:14:19;6.43;;;3.80;;
53497;SDS011;39382;47.168;16.008;2023-11-21T02:16:47;7.15;;;3.95;;
53497;SDS011;39382;47.168;16.008;2023-11-21T02:19:20;6.55;;;3.45;;
53497;SDS011;39382;47.168;16.008;2023-11-21T02:21:54;6.90;;;3.75;;
53497;SDS011;39382;47.168;16.008;2023-11-21T02:24:31;5.45;;;3.42;;
53497;SDS011;39382;47.168;16.008;2023-11-21T02:26:57;4.38;;;3.28;;
53497;SDS011;39382;47.168;16.008;2023-11-21T02:29:22;4.78;;;3.72;;
53497;SDS011;39382;47.168;16.008;2023-11-21T02:31:52;5.93;;;3.53;;
53497;SDS011;39382;47.168;16.008;2023-11-21T02:34:19;6.47;;;4.15;;
53497;SDS011;39382;47.168;16.008;2023-11-21T02:36:46;8.30;;;4.13;;
53497;SDS011;39382;47.168;16.008;2023-11-21T02:39:14;6.18;;;3.50;;
53497;SDS011;39382;47.168;16.008;2023-11-21T02:41:40;6.10;;;3.60;;
53497;SDS011;39382;47.168;16.008;2023-11-21T02:44:06;4.75;;;3.67;;
53497;SDS011;39382;47.168;16.008;2023-11-21T02:46:32;6.20;;;3.42;;
53497;SDS011;39382;47.168;16.008;2023-11-21T02:48:59;7.05;;;4.63;;
53497;SDS011;39382;47.168;16.008;2023-11-21T02:51:28;8.15;;;4.22;;
53497;SDS011;39382;47.168;16.008;2023-11-21T02:53:55;5.35;;;4.05;;
53497;SDS011;39382;47.168;16.008;2023-11-21T02:56:26;7.93;;;3.45;;
53497;SDS011;39382;47.168;16.008;2023-11-21T02:58:52;8.52;;;4.20;;
53497;SDS011;39382;47.168;16.008;2023-11-21T03:01:17;6.60;;;3.50;;
53497;SDS011;39382;47.168;16.008;2023-11-21T03:03:43;4.20;;;3.45;;
53497;SDS011;39382;47.168;16.008;2023-11-21T03:06:09;8.38;;;3.58;;
53497;SDS011;39382;47.168;16.008;2023-11-21T03:08:35;9.40;;;3.33;;
53497;SDS011;39382;47.168;16.008;2023-11-21T03:11:00;4.90;;;3.53;;
53497;SDS011;39382;47.168;16.008;2023-11-21T03:13:28;5.40;;;3.75;;
53497;SDS011;39382;47.168;16.008;2023-11-21T03:15:54;5.70;;;3.60;;
53497;SDS011;39382;47.168;16.008;2023-11-21T03:18:19;7.43;;;3.35;;
53497;SDS011;39382;47.168;16.008;2023-11-21T03:20:47;3.78;;;3.47;;
53497;SDS011;39382;47.168;16.008;2023-11-21T03:23:13;10.38;;;4.15;;
53497;SDS011;39382;47.168;16.008;2023-11-21T03:25:38;7.93;;;3.70;;
53497;SDS011;39382;47.168;16.008;2023-11-21T03:28:04;5.85;;;3.47;;
53497;SDS011;39382;47.168;16.008;2023-11-21T03:30:30;6.07;;;3.00;;
53497;SDS011;39382;47.168;16.008;2023-11-21T03:32:55;4.43;;;3.38;;
53497;SDS011;39382;47.168;16.008;2023-11-21T03:35:21;7.13;;;3.40;;
53497;SDS011;39382;47.168;16.008;2023-11-21T03:37:48;6.85;;;3.78;;
53497;SDS011;39382;47.168;16.008;2023-11-21T03:40:13;6.03;;;3.88;;
53497;SDS011;39382;47.168;16.008;2023-11-21T03:42:39;8.43;;;3.75;;
53497;SDS011;39382;47.168;16.008;2023-11-21T03:45:05;7.85;;;4.18;;
53497;SDS011;39382;47.168;16.008;2023-11-21T03:47:32;5.88;;;3.40;;
53497;SDS011;39382;47.168;16.008;2023-11-21T03:49:57;6.18;;;3.60;;
53497;SDS011;39382;47.168;16.008;2023-11-21T03:52:23;6.60;;;3.63;;
53497;SDS011;39382;47.168;16.008;2023-11-21T03:54:50;5.07;;;3.38;;
53497;SDS011;39382;47.168;16.008;2023-11-21T03:57:15;6.65;;;5.05;;
53497;SDS011;39382;47.168;16.008;2023-11-21T03:59:42;12.07;;;6.85;;
53497;SDS011;39382;47.168;16.008;2023-11-21T04:02:08;7.38;;;4.60;;
53497;SDS011;39382;47.168;16.008;2023-11-21T04:04:34;5.18;;;3.65;;
53497;SDS011;39382;47.168;16.008;2023-11-21T04:07:01;6.22;;;3.63;;
53497;SDS011;39382;47.168;16.008;2023-11-21T04:09:26;9.90;;;4.13;;
53497;SDS011;39382;47.168;16.008;2023-11-21T04:11:52;5.75;;;3.63;;
53497;SDS011;39382;47.168;16.008;2023-11-21T04:14:18;4.55;;;3.30;;
53497;SDS011;39382;47.168;16.008;2023-11-21T04:16:44;5.00;;;3.25;;
53497;SDS011;39382;47.168;16.008;2023-11-21T04:19:10;9.95;;;3.80;;
53497;SDS011;39382;47.168;16.008;2023-11-21T04:21:36;5.18;;;3.15;;
53497;SDS011;39382;47.168;16.008;2023-11-21T04:24:02;4.63;;;3.63;;
53497;SDS011;39382;47.168;16.008;2023-11-21T04:26:28;8.27;;;3.80;;
53497;SDS011;39382;47.168;16.008;2023-11-21T04:28:53;8.38;;;3.30;;
53497;SDS011;39382;47.168;16.008;2023-11-21T04:31:19;5.85;;;3.28;;
53497;SDS011;39382;47.168;16.008;2023-11-21T04:33:44;3.03;;;2.67;;
53497;SDS011;39382;47.168;16.008;2023-11-21T04:36:10;4.43;;;3.22;;
53497;SDS011;39382;47.168;16.008;2023-11-21T04:38:35;3.92;;;2.80;;
53497;SDS011;39382;47.168;16.008;2023-11-21T04:41:01;9.50;;;4.53;;
53497;SDS011;39382;47.168;16.008;2023-11-21T04:43:27;7.88;;;4.70;;
53497;SDS011;39382;47.168;16.008;2023-11-21T04:45:52;5.10;;;3.67;;
53497;SDS011;39382;47.168;16.008;2023-11-21T04:48:19;6.00;;;3.60;;
53497;SDS011;39382;47.168;16.008;2023-11-21T04:50:45;6.97;;;3.22;;
53497;SDS011;39382;47.168;16.008;2023-11-21T04:53:11;7.03;;;2.92;;
53497;SDS011;39382;47.168;16.008;2023-11-21T04:55:39;6.63;;;3.08;;
53497;SDS011;39382;47.168;16.008;2023-11-21T04:58:07;5.60;;;3.45;;
53497;SDS011;39382;47.168;16.008;2023-11-21T05:00:33;4.55;;;2.95;;
53497;SDS011;39382;47.168;16.008;2023-11-21T05:02:59;4.50;;;2.75;;
53497;SDS011;39382;47.168;16.008;2023-11-21T05:05:26;5.07;;;3.05;;
53497;SDS011;39382;47.168;16.008;2023-11-21T05:07:52;8.52;;;3.25;;
53497;SDS011;39382;47.168;16.008;2023-11-21T05:10:18;7.93;;;2.75;;
53497;SDS011;39382;47.168;16.008;2023-11-21T05:12:44;10.27;;;3.83;;
53497;SDS011;39382;47.168;16.008;2023-11-21T05:15:13;5.43;;;3.35;;
53497;SDS011;39382;47.168;16.008;2023-11-21T05:17:40;7.57;;;3.15;;
53497;SDS011;39382;47.168;16.008;2023-11-21T05:20:15;11.97;;;2.77;;
53497;SDS011;39382;47.168;16.008;2023-11-21T05:22:48;5.53;;;3.92;;
53497;SDS011;39382;47.168;16.008;2023-11-21T05:25:15;3.85;;;2.50;;
53497;SDS011;39382;47.168;16.008;2023-11-21T05:27:43;5.65;;;3.00;;
53497;SDS011;39382;47.168;16.008;2023-11-21T05:30:13;5.65;;;3.20;;
53497;SDS011;39382;47.168;16.008;2023-11-21T05:32:39;4.57;;;2.92;;
53497;SDS011;39382;47.168;16.008;2023-11-21T05:35:07;5.25;;;3.45;;
53497;SDS011;39382;47.168;16.008;2023-11-21T05:37:37;5.35;;;3.25;;
53497;SDS011;39382;47.168;16.008;2023-11-21T05:40:05;4.72;;;3.55;;
53497;SDS011;39382;47.168;16.008;2023-11-21T05:42:32;9.35;;;3.15;;
53497;SDS011;39382;47.168;16.008;2023-11-21T05:44:58;5.68;;;2.88;;
53497;SDS011;39382;47.168;16.008;2023-11-21T05:47:24;4.82;;;3.17;;
53497;SDS011;39382;47.168;16.008;2023-11-21T05:49:53;5.07;;;3.15;;
53497;SDS011;39382;47.168;16.008;2023-11-21T05:52:19;4.07;;;2.95;;
53497;SDS011;39382;47.168;16.008;2023-11-21T05:54:45;8.88;;;3.92;;
53497;SDS011;39382;47.168;16.008;2023-11-21T05:57:11;5.47;;;3.33;;
53497;SDS011;39382;47.168;16.008;2023-11-21T05:59:36;3.38;;;2.85;;
53497;SDS011;39382;47.168;16.008;2023-11-21T06:02:02;4.82;;;3.97;;
53497;SDS011;39382;47.168;16.008;2023-11-21T06:04:28;5.70;;;3.85;;
53497;SDS011;39382;47.168;16.008;2023-11-21T06:06:54;6.88;;;3.72;;
53497;SDS011;39382;47.168;16.008;2023-11-21T06:09:19;7.88;;;5.00;;
53497;SDS011;39382;47.168;16.008;2023-11-21T06:11:45;6.35;;;3.47;;
53497;SDS011;39382;47.168;16.008;2023-11-21T06:14:11;7.43;;;3.15;;
53497;SDS011;39382;47.168;16.008;2023-11-21T06:16:37;7.13;;;4.63;;
53497;SDS011;39382;47.168;16.008;2023-11-21T06:19:02;8.40;;;4.03;;
53497;SDS011;39382;47.168;16.008;2023-11-21T06:21:28;5.40;;;3.85;;
53497;SDS011;39382;47.168;16.008;2023-11-21T06:23:53;5.13;;;3.58;;
53497;SDS011;39382;47.168;16.008;2023-11-21T06:26:21;5.03;;;3.30;;
53497;SDS011;39382;47.168;16.008;2023-11-21T06:28:47;8.82;;;3.05;;
53497;SDS011;39382;47.168;16.008;2023-11-21T06:31:16;10.27;;;4.55;;
53497;SDS011;39382;47.168;16.008;2023-11-21T06:33:42;9.25;;;3.80;;
53497;SDS011;39382;47.168;16.008;2023-11-21T06:36:08;6.65;;;3.22;;
53497;SDS011;39382;47.168;16.008;2023-11-21T06:38:36;7.15;;;4.00;;
53497;SDS011;39382;47.168;16.008;2023-11-21T06:41:02;7.32;;;4.78;;
53497;SDS011;39382;47.168;16.008;2023-11-21T06:43:29;12.25;;;4.57;;
53497;SDS011;39382;47.168;16.008;2023-11-21T06:45:56;9.10;;;4.82;;
53497;SDS011;39382;47.168;16.008;2023-11-21T06:48:22;5.90;;;4.18;;
53497;SDS011;39382;47.168;16.008;2023-11-21T06:50:48;4.28;;;3.33;;
53497;SDS011;39382;47.168;16.008;2023-11-21T06:53:13;5.78;;;3.75;;
53497;SDS011;39382;47.168;16.008;2023-11-21T06:55:39;7.13;;;3.85;;
53497;SDS011;39382;47.168;16.008;2023-11-21T06:58:05;7.00;;;3.95;;
53497;SDS011;39382;47.168;16.008;2023-11-21T07:00:31;7.05;;;4.07;;
53497;SDS011;39382;47.168;16.008;2023-11-21T07:02:56;6.05;;;3.40;;
53497;SDS011;39382;47.168;16.008;2023-11-21T07:05:22;4.72;;;3.13;;
53497;SDS011;39382;47.168;16.008;2023-11-21T07:07:48;3.42;;;3.03;;
53497;SDS011;39382;47.168;16.008;2023-11-21T07:10:14;5.22;;;3.55;;
53497;SDS011;39382;47.168;16.008;2023-11-21T07:12:40;7.60;;;3.63;;
53497;SDS011;39382;47.168;16.008;2023-11-21T07:15:06;3.47;;;2.90;;
53497;SDS011;39382;47.168;16.008;2023-11-21T07:17:34;7.50;;;3.10;;
53497;SDS011;39382;47.168;16.008;2023-11-21T07:20:00;10.13;;;4.20;;
53497;SDS011;39382;47.168;16.008;2023-11-21T07:22:26;3.75;;;2.83;;
53497;SDS011;39382;47.168;16.008;2023-11-21T07:24:52;5.85;;;2.78;;
53497;SDS011;39382;47.168;16.008;2023-11-21T07:27:18;5.43;;;3.33;;
53497;SDS011;39382;47.168;16.008;2023-11-21T07:29:44;7.30;;;3.03;;
53497;SDS011;39382;47.168;16.008;2023-11-21T07:32:10;4.70;;;3.45;;
53497;SDS011;39382;47.168;16.008;2023-11-21T07:34:36;9.45;;;5.43;;
53497;SDS011;39382;47.168;16.008;2023-11-21T07:37:02;10.60;;;6.25;;
53497;SDS011;39382;47.168;16.008;2023-11-21T07:39:28;9.82;;;5.28;;
53497;SDS011;39382;47.168;16.008;2023-11-21T07:41:53;5.25;;;4.57;;
53497;SDS011;39382;47.168;16.008;2023-11-21T07:44:19;14.75;;;4.68;;
53497;SDS011;39382;47.168;16.008;2023-11-21T07:46:45;4.20;;;3.58;;
53497;SDS011;39382;47.168;16.008;2023-11-21T07:49:11;6.32;;;4.65;;
53497;SDS011;39382;47.168;16.008;2023-11-21T07:51:41;7.45;;;4.32;;
53497;SDS011;39382;47.168;16.008;2023-11-21T07:54:07;12.18;;;5.22;;
53497;SDS011;39382;47.168;16.008;2023-11-21T07:56:32;16.55;;;6.88;;
53497;SDS011;39382;47.168;16.008;2023-11-21T07:58:58;11.82;;;7.00;;
53497;SDS011;39382;47.168;16.008;2023-11-21T08:01:23;13.27;;;6.25;;
53497;SDS011;39382;47.168;16.008;2023-11-21T08:03:49;15.38;;;6.22;;
53497;SDS011;39382;47.168;16.008;2023-11-21T08:06:17;8.65;;;5.57;;
53497;SDS011;39382;47.168;16.008;2023-11-21T08:08:43;11.35;;;5.50;;
53497;SDS011;39382;47.168;16.008;2023-11-21T08:11:08;10.10;;;6.65;;
53497;SDS011;39382;47.168;16.008;2023-11-21T08:13:35;9.20;;;5.72;;
53497;SDS011;39382;47.168;16.008;2023-11-21T08:16:00;8.95;;;5.43;;
53497;SDS011;39382;47.168;16.008;2023-11-21T08:18:30;9.23;;;4.65;;
53497;SDS011;39382;47.168;16.008;2023-11-21T08:20:55;10.02;;;5.30;;
53497;SDS011;39382;47.168;16.008;2023-11-21T08:23:21;7.72;;;5.40;;
53497;SDS011;39382;47.168;16.008;2023-11-21T08:25:50;10.75;;;4.80;;
53497;SDS011;39382;47.168;16.008;2023-11-21T08:28:19;9.40;;;3.88;;
53497;SDS011;39382;47.168;16.008;2023-11-21T08:30:47;6.93;;;4.78;;
53497;SDS011;39382;47.168;16.008;2023-11-21T08:33:12;5.82;;;3.50;;
53497;SDS011;39382;47.168;16.008;2023-11-21T08:35:38;5.30;;;3.72;;
53497;SDS011;39382;47.168;16.008;2023-11-21T08:38:03;8.57;;;4.03;;
53497;SDS011;39382;47.168;16.008;2023-11-21T08:40:29;7.32;;;4.43;;
53497;SDS011;39382;47.168;16.008;2023-11-21T08:42:55;11.70;;;4.38;;
53497;SDS011;39382;47.168;16.008;2023-11-21T08:45:23;3.97;;;3.55;;
53497;SDS011;39382;47.168;16.008;2023-11-21T08:47:50;6.13;;;3.70;;
53497;SDS011;39382;47.168;16.008;2023-11-21T08:50:16;5.90;;;4.07;;
53497;SDS011;39382;47.168;16.008;2023-11-21T08:52:43;12.43;;;4.10;;
53497;SDS011;39382;47.168;16.008;2023-11-21T08:55:10;8.68;;;4.72;;
53497;SDS011;39382;47.168;16.008;2023-11-21T08:57:37;14.07;;;5.68;;
53497;SDS011;39382;47.168;16.008;2023-11-21T09:00:04;6.75;;;4.75;;
53497;SDS011;39382;47.168;16.008;2023-11-21T09:02:35;7.38;;;4.53;;
53497;SDS011;39382;47.168;16.008;2023-11-21T09:05:02;7.65;;;4.97;;
53497;SDS011;39382;47.168;16.008;2023-11-21T09:07:31;7.13;;;5.07;;
53497;SDS011;39382;47.168;16.008;2023-11-21T09:09:56;17.63;;;5.15;;
53497;SDS011;39382;47.168;16.008;2023-11-21T09:12:22;11.93;;;5.00;;
53497;SDS011;39382;47.168;16.008;2023-11-21T09:14:49;8.23;;;5.15;;
53497;SDS011;39382;47.168;16.008;2023-11-21T09:17:16;8.18;;;5.00;;
53497;SDS011;39382;47.168;16.008;2023-11-21T09:19:42;5.40;;;4.63;;
53497;SDS011;39382;47.168;16.008;2023-11-21T09:22:15;15.00;;;6.45;;
53497;SDS011;39382;47.168;16.008;2023-11-21T09:24:41;8.23;;;5.53;;
53497;SDS011;39382;47.168;16.008;2023-11-21T09:27:07;6.93;;;3.95;;
53497;SDS011;39382;47.168;16.008;2023-11-21T09:29:34;13.50;;;6.35;;
53497;SDS011;39382;47.168;16.008;2023-11-21T09:32:00;16.90;;;9.05;;
53497;SDS011;39382;47.168;16.008;2023-11-21T09:34:26;10.73;;;6.43;;
53497;SDS011;39382;47.168;16.008;2023-11-21T09:36:52;13.07;;;6.72;;
53497;SDS011;39382;47.168;16.008;2023-11-21T09:39:18;12.95;;;6.15;;
53497;SDS011;39382;47.168;16.008;2023-11-21T09:41:46;6.22;;;4.72;;
53497;SDS011;39382;47.168;16.008;2023-11-21T09:44:16;10.88;;;4.85;;
53497;SDS011;39382;47.168;16.008;2023-11-21T09:46:59;6.47;;;4.32;;
53497;SDS011;39382;47.168;16.008;2023-11-21T09:49:25;7.53;;;3.85;;
53497;SDS011;39382;47.168;16.008;2023-11-21T09:51:54;8.65;;;4.35;;
53497;SDS011;39382;47.168;16.008;2023-11-21T09:54:23;7.30;;;4.28;;
53497;SDS011;39382;47.168;16.008;2023-11-21T09:56:50;6.93;;;4.28;;
53497;SDS011;39382;47.168;16.008;2023-11-21T09:59:15;8.48;;;5.03;;
53497;SDS011;39382;47.168;16.008;2023-11-21T10:01:41;9.32;;;5.15;;
53497;SDS011;39382;47.168;16.008;2023-11-21T10:04:08;12.25;;;5.53;;
53497;SDS011;39382;47.168;16.008;2023-11-21T10:06:40;10.55;;;6.95;;
53497;SDS011;39382;47.168;16.008;2023-11-21T10:09:11;11.27;;;6.88;;
53497;SDS011;39382;47.168;16.008;2023-11-21T10:11:41;9.50;;;5.03;;
53497;SDS011;39382;47.168;16.008;2023-11-21T10:14:10;14.82;;;7.93;;
53497;SDS011;39382;47.168;16.008;2023-11-21T10:16:38;8.20;;;5.72;;
53497;SDS011;39382;47.168;16.008;2023-11-21T10:19:05;18.17;;;7.50;;
53497;SDS011;39382;47.168;16.008;2023-11-21T10:21:34;11.80;;;6.10;;
53497;SDS011;39382;47.168;16.008;2023-11-21T10:24:00;15.18;;;10.43;;
53497;SDS011;39382;47.168;16.008;2023-11-21T10:26:26;7.32;;;4.80;;
53497;SDS011;39382;47.168;16.008;2023-11-21T10:28:59;9.57;;;5.10;;
53497;SDS011;39382;47.168;16.008;2023-11-21T10:31:28;8.55;;;3.88;;
53497;SDS011;39382;47.168;16.008;2023-11-21T10:34:16;9.35;;;6.93;;
53497;SDS011;39382;47.168;16.008;2023-11-21T10:36:45;9.50;;;6.45;;
53497;SDS011;39382;47.168;16.008;2023-11-21T10:39:18;15.50;;;9.23;;
53497;SDS011;39382;47.168;16.008;2023-11-21T10:41:45;13.32;;;6.18;;
53497;SDS011;39382;47.168;16.008;2023-11-21T10:44:13;5.82;;;4.00;;
53497;SDS011;39382;47.168;16.008;2023-11-21T10:46:53;9.77;;;3.70;;
53497;SDS011;39382;47.168;16.008;2023-11-21T10:49:23;6.53;;;4.60;;
53497;SDS011;39382;47.168;16.008;2023-11-21T10:51:50;5.32;;;2.80;;
53497;SDS011;39382;47.168;16.008;2023-11-21T10:54:21;5.88;;;3.65;;
53497;SDS011;39382;47.168;16.008;2023-11-21T10:56:48;4.95;;;2.90;;
53497;SDS011;39382;47.168;16.008;2023-11-21T10:59:18;5.35;;;3.78;;
53497;SDS011;39382;47.168;16.008;2023-11-21T11:01:46;5.57;;;3.13;;
53497;SDS011;39382;47.168;16.008;2023-11-21T11:04:15;4.55;;;2.80;;
53497;SDS011;39382;47.168;16.008;2023-11-21T11:06:43;9.15;;;3.15;;
53497;SDS011;39382;47.168;16.008;2023-11-21T11:09:11;3.88;;;2.50;;
53497;SDS011;39382;47.168;16.008;2023-11-21T11:11:39;4.47;;;2.88;;
53497;SDS011;39382;47.168;16.008;2023-11-21T11:14:07;3.42;;;2.50;;
53497;SDS011;39382;47.168;16.008;2023-11-21T11:16:36;3.50;;;3.17;;
53497;SDS011;39382;47.168;16.008;2023-11-21T11:19:04;9.40;;;3.25;;
53497;SDS011;39382;47.168;16.008;2023-11-21T11:21:54;9.07;;;2.55;;
53497;SDS011;39382;47.168;16.008;2023-11-21T11:35:01;3.42;;;2.17;;
53497;SDS011;39382;47.168;16.008;2023-11-21T11:37:32;6.25;;;3.88;;
53497;SDS011;39382;47.168;16.008;2023-11-21T11:39:58;4.82;;;2.25;;
53497;SDS011;39382;47.168;16.008;2023-11-21T11:42:25;5.03;;;3.35;;
53497;SDS011;39382;47.168;16.008;2023-11-21T11:44:52;3.53;;;2.28;;
53497;SDS011;39382;47.168;16.008;2023-11-21T11:47:20;6.07;;;2.17;;
53497;SDS011;39382;47.168;16.008;2023-11-21T11:52:33;3.15;;;2.55;;
53497;SDS011;39382;47.168;16.008;2023-11-21T11:55:06;9.98;;;7.18;;
53497;SDS011;39382;47.168;16.008;2023-11-21T11:57:35;12.60;;;7.78;;
53497;SDS011;39382;47.168;16.008;2023-11-21T12:02:48;5.07;;;2.15;;
53497;SDS011;39382;47.168;16.008;2023-11-21T12:05:15;7.25;;;2.85;;
53497;SDS011;39382;47.168;16.008;2023-11-21T12:07:43;3.20;;;2.25;;
53497;SDS011;39382;47.168;16.008;2023-11-21T12:10:14;1.83;;;1.52;;
53497;SDS011;39382;47.168;16.008;2023-11-21T12:12:43;6.15;;;2.35;;
53497;SDS011;39382;47.168;16.008;2023-11-21T12:15:17;5.47;;;2.20;;
53497;SDS011;39382;47.168;16.008;2023-11-21T12:17:44;2.42;;;1.70;;
53497;SDS011;39382;47.168;16.008;2023-11-21T12:20:11;5.07;;;2.10;;
53497;SDS011;39382;47.168;16.008;2023-11-21T12:22:45;2.95;;;1.70;;
53497;SDS011;39382;47.168;16.008;2023-11-21T12:25:13;3.55;;;1.73;;
53497;SDS011;39382;47.168;16.008;2023-11-21T12:27:50;5.63;;;2.05;;
53497;SDS011;39382;47.168;16.008;2023-11-21T12:30:17;2.28;;;1.77;;
53497;SDS011;39382;47.168;16.008;2023-11-21T12:32:45;4.55;;;1.20;;
53497;SDS011;39382;47.168;16.008;2023-11-21T12:35:13;3.92;;;1.50;;
53497;SDS011;39382;47.168;16.008;2023-11-21T12:37:39;2.10;;;1.35;;
53497;SDS011;39382;47.168;16.008;2023-11-21T12:40:08;3.22;;;1.27;;
53497;SDS011;39382;47.168;16.008;2023-11-21T12:42:43;8.13;;;4.10;;
53497;SDS011;39382;47.168;16.008;2023-11-21T12:47:50;3.92;;;2.60;;
53497;SDS011;39382;47.168;16.008;2023-11-21T12:50:20;5.45;;;2.08;;
53497;SDS011;39382;47.168;16.008;2023-11-21T12:52:49;3.15;;;2.15;;
53497;SDS011;39382;47.168;16.008;2023-11-21T12:55:20;3.10;;;2.00;;
53497;SDS011;39382;47.168;16.008;2023-11-21T12:57:50;3.42;;;2.42;;
53497;SDS011;39382;47.168;16.008;2023-11-21T13:00:27;18.58;;;10.40;;
53497;SDS011;39382;47.168;16.008;2023-11-21T13:02:57;5.80;;;3.22;;
53497;SDS011;39382;47.168;16.008;2023-11-21T13:05:36;7.20;;;1.63;;
53497;SDS011;39382;47.168;16.008;2023-11-21T13:08:04;6.00;;;2.70;;
53497;SDS011;39382;47.168;16.008;2023-11-21T13:10:37;7.68;;;2.08;;
53497;SDS011;39382;47.168;16.008;2023-11-21T13:13:06;5.32;;;2.35;;
53497;SDS011;39382;47.168;16.008;2023-11-21T13:15:34;9.52;;;2.38;;
53497;SDS011;39382;47.168;16.008;2023-11-21T13:18:03;6.85;;;2.22;;
53497;SDS011;39382;47.168;16.008;2023-11-21T13:20:29;3.03;;;1.67;;
53497;SDS011;39382;47.168;16.008;2023-11-21T13:22:58;3.33;;;1.92;;
53497;SDS011;39382;47.168;16.008;2023-11-21T13:25:24;5.68;;;3.47;;
53497;SDS011;39382;47.168;16.008;2023-11-21T13:27:57;3.40;;;2.28;;
53497;SDS011;39382;47.168;16.008;2023-11-21T13:30:26;7.00;;;1.98;;
53497;SDS011;39382;47.168;16.008;2023-11-21T13:33:00;3.20;;;2.90;;
53497;SDS011;39382;47.168;16.008;2023-11-21T13:35:33;3.70;;;2.35;;
53497;SDS011;39382;47.168;16.008;2023-11-21T13:38:06;3.65;;;1.58;;
53497;SDS011;39382;47.168;16.008;2023-11-21T13:40:34;3.85;;;2.28;;
53497;SDS011;39382;47.168;16.008;2023-11-21T13:43:07;3.17;;;2.45;;
53497;SDS011;39382;47.168;16.008;2023-11-21T13:45:38;7.43;;;3.80;;
53497;SDS011;39382;47.168;16.008;2023-11-21T13:48:08;3.47;;;2.92;;
53497;SDS011;39382;47.168;16.008;2023-11-21T13:50:53;4.88;;;2.20;;
53497;SDS011;39382;47.168;16.008;2023-11-21T13:53:33;8.48;;;1.98;;
53497;SDS011;39382;47.168;16.008;2023-11-21T13:56:02;4.00;;;2.90;;
53497;SDS011;39382;47.168;16.008;2023-11-21T13:58:28;9.88;;;2.88;;
53497;SDS011;39382;47.168;16.008;2023-11-21T14:01:12;4.40;;;2.10;;
53497;SDS011;39382;47.168;16.008;2023-11-21T14:03:57;7.72;;;2.28;;
53497;SDS011;39382;47.168;16.008;2023-11-21T14:06:51;4.53;;;2.75;;
53497;SDS011;39382;47.168;16.008;2023-11-21T14:09:20;2.33;;;2.10;;
53497;SDS011;39382;47.168;16.008;2023-11-21T14:11:49;5.80;;;2.92;;
53497;SDS011;39382;47.168;16.008;2023-11-21T14:14:16;5.78;;;3.30;;
53497;SDS011;39382;47.168;16.008;2023-11-21T14:16:43;5.78;;;3.72;;
53497;SDS011;39382;47.168;16.008;2023-11-21T14:19:09;6.57;;;3.00;;
53497;SDS011;39382;47.168;16.008;2023-11-21T14:21:40;5.97;;;3.40;;
53497;SDS011;39382;47.168;16.008;2023-11-21T14:24:10;12.75;;;4.20;;
53497;SDS011;39382;47.168;16.008;2023-11-21T14:26:38;9.32;;;4.80;;
53497;SDS011;39382;47.168;16.008;2023-11-21T14:29:08;6.13;;;3.83;;
53497;SDS011;39382;47.168;16.008;2023-11-21T14:31:34;8.13;;;4.78;;
53497;SDS011;39382;47.168;16.008;2023-11-21T14:34:00;6.43;;;4.00;;
53497;SDS011;39382;47.168;16.008;2023-11-21T14:36:31;3.80;;;2.60;;
53497;SDS011;39382;47.168;16.008;2023-11-21T14:38:56;2.75;;;2.00;;
53497;SDS011;39382;47.168;16.008;2023-11-21T14:41:22;8.57;;;2.80;;
53497;SDS011;39382;47.168;16.008;2023-11-21T14:43:52;2.67;;;2.08;;
53497;SDS011;39382;47.168;16.008;2023-11-21T14:46:19;1.70;;;1.60;;
53497;SDS011;39382;47.168;16.008;2023-11-21T14:48:45;5.72;;;2.17;;
53497;SDS011;39382;47.168;16.008;2023-11-21T14:51:24;8.25;;;3.80;;
53497;SDS011;39382;47.168;16.008;2023-11-21T14:53:58;13.20;;;3.30;;
53497;SDS011;39382;47.168;16.008;2023-11-21T14:56:35;5.88;;;3.53;;